This is the latest recevied weather packets stored in our database for station/object EA4BCR. If no packets are shown the sender has not sent any weather packets the latest 1 day(s).
| Time | Temp. | Humidity | Pressure | Rain* | Wind** | Luminosity | Snow |
|---|---|---|---|---|---|---|---|
| 1778041254 | 6.67° C | 86% | 1014.9 hPa | - | - | - | - |
| 1778040655 | 6.67° C | 83% | 1014.6 hPa | - | - | - | - |
| 1778040054 | 6.67° C | 84% | 1014.7 hPa | - | - | - | - |
| 1778039455 | 7.22° C | 83% | 1014.4 hPa | - | - | - | - |
| 1778038854 | 7.22° C | 83% | 1014.5 hPa | - | - | - | - |
| 1778038254 | 7.22° C | 85% | 1014.6 hPa | - | - | - | - |
| 1778037654 | 7.22° C | 83% | 1014.5 hPa | - | - | - | - |
| 1778037054 | 7.22° C | 85% | 1014.5 hPa | - | - | - | - |
| 1778036454 | 7.22° C | 84% | 1014.5 hPa | - | - | - | - |
| 1778035854 | 7.22° C | 84% | 1014.7 hPa | - | - | - | - |
| 1778035254 | 7.22° C | 85% | 1014.6 hPa | - | - | - | - |
| 1778034654 | 7.78° C | 83% | 1014.4 hPa | - | - | - | - |
| 1778034054 | 8.33° C | 79% | 1014.1 hPa | - | - | - | - |
| 1778032854 | 8.33° C | 79% | 1014.2 hPa | - | - | - | - |
| 1778032254 | 8.33° C | 77% | 1014.1 hPa | - | - | - | - |
| 1778031654 | 8.33° C | 79% | 1014 hPa | - | - | - | - |
| 1778031054 | 8.33° C | 78% | 1014.1 hPa | - | - | - | - |
| 1778030454 | 8.89° C | 76% | 1013.9 hPa | - | - | - | - |
| 1778029854 | 8.33° C | 77% | 1014 hPa | - | - | - | - |
| 1778029254 | 8.33° C | 76% | 1014.2 hPa | - | - | - | - |
| 1778028654 | 8.89° C | 75% | 1014.1 hPa | - | - | - | - |
| 1778028054 | 8.89° C | 74% | 1014.2 hPa | - | - | - | - |
| 1778027454 | 9.44° C | 73% | 1014 hPa | - | - | - | - |
| 1778026854 | 9.44° C | 73% | 1014.1 hPa | - | - | - | - |
| 1778026254 | 8.89° C | 72% | 1014.2 hPa | - | - | - | - |
* Rain since midnight (hover to see other rain measurements)
** Current wind speed in m/s (hover to see current wind gust speed)